Logo AVAMET
Benvolgut visitant, si us plau, ingressa Recuperar contrasenya
AVAMET paisatges

la Serratella

Dades diàries. Acumulats / Últims 30 dies disponibles

Data Temperatura (°C) Humitat rel. (%) Pressió rel. (hPa) Vent (km/h) Precipitació
Mínima Mitjana Màxima Amplitud
tèrmica
Mínima Mitjana Màxima Mínima Mitjana Màxima Predom. Mitjana Ràfega
màxima
Total
(mm)
Índex-n
Mínima Mitjana Màxima Mínima Mitjana Màxima n
0 a 1
P0 max
mm 5'
Dades mensuals acumulades fins l'últim dia disponible
10/2020 5,9 10,2 15,7 13,7 14,4 18,1 24,5 18,6 33 65 97 989 1.015 1.023   12,2 77,0 7,6
Dades anuals acumulades fins l'últim dia disponible
2020 1,3 13,7 22,8 16,9 6,3 20,7 29,9 28,6 19 71 100 989 1.015 1.029   7,9 84,0 483,0
Últims 30 dies disponibles
20-10-2020 12,9     13,9     16,1 3,2 82 93 97 1.011 1.016 1.019 ONO 10,1 31,0 0,0
19-10-2020 10,3     13,1     16,5 6,2 64 85 94 1.019 1.020 1.022 SSE 9,9 34,0 0,0
18-10-2020 9,0     12,4     16,9 7,9 41 67 89 1.019 1.021 1.022 E 4,2 27,0 0,0
17-10-2020 7,1     10,8     14,7 7,6 50 70 83 1.016 1.017 1.019 S 6,1 29,0 0,0
16-10-2020 5,9     8,9     14,4 8,5 41 59 75 1.015 1.017 1.019 S 13,0 53,0 0,0
15-10-2020 6,9     9,9     14,4 7,5 41 55 64 1.011 1.013 1.016 SSE 26,1 64,0 0,0
14-10-2020 8,4     11,5     14,6 6,2 42 61 73 1.008 1.009 1.012 SE 18,8 53,0 0,0
13-10-2020 11,6     15,1     20,4 8,8 45 62 76 1.011 1.014 1.019 SE 14,4 56,0 0,0
12-10-2020 8,6     11,3     15,2 6,6 47 60 70 1.019 1.020 1.022 SSE 24,2 66,0 0,0
11-10-2020 8,7     11,3     14,8 6,1 44 57 67 1.018 1.020 1.022 SSE 32,4 77,0 0,0
10-10-2020 12,2     15,7     19,8 7,6 54 76 95 1.020 1.021 1.023 E 8,7 48,0 0,2
09-10-2020 13,5     16,5     20,6 7,1 75 88 95 1.020 1.021 1.022 SSE 3,9 23,0 0,0
08-10-2020 13,6     16,5     21,1 7,5 69 85 94 1.021 1.022 1.023 S 6,6 31,0 0,0
07-10-2020 15,7     19,6     23,6 7,9 48 58 77 1.019 1.020 1.023 SE 13,0 50,0 0,0
06-10-2020 12,1     17,2     22,1 10,0 41 53 68 1.019 1.020 1.021 SSE 5,3 24,0 0,0
05-10-2020 9,7     12,7     17,4 7,7 41 59 68 1.011 1.015 1.020 SSE 9,3 40,0 0,0
04-10-2020 8,9     13,0     18,9 10,0 36 52 74 1.005 1.007 1.011 SE 9,4 48,0 0,0
03-10-2020 8,0     12,2     17,1 9,1 41 51 63 997 1.003 1.009 SSE 10,5 50,0 0,0
02-10-2020 7,7     13,7     18,5 10,8 43 62 86 989 994 1.003 SSE 13,7 66,0 7,4 0,65 2,20
01-10-2020 13,8     18,7     24,5 10,7 33 56 89 1.004 1.008 1.013 SSE 4,3 27,0 0,0
30-09-2020 12,6     15,9     19,9 7,3 66 82 93 1.013 1.015 1.017 ENE 4,1 21,0 0,0
29-09-2020 12,2     14,9     19,4 7,2 51 68 89 1.016 1.018 1.020 ENE 5,6 24,0 0,0
28-09-2020 9,9     14,1     20,5 10,6 35 55 67 1.012 1.015 1.019 SE 16,3 64,0 0,0
27-09-2020 9,8     14,3     18,6 8,8 23 49 80 1.006 1.010 1.014 SSE 20,7 77,0 0,0
26-09-2020 9,9     13,8     19,7 9,8 42 55 63 1.008 1.014 1.018 SSE 21,4 72,0 0,0
25-09-2020 10,8     14,6     17,7 6,9 37 53 70 1.010 1.013 1.019 SSE 17,2 66,0 0,0
24-09-2020 16,3     19,4     22,1 5,8 54 64 81 1.010 1.011 1.012 SSE 5,0 29,0 0,0
23-09-2020 16,0     18,4     22,4 6,4 54 71 88 1.010 1.012 1.013 ESE 5,0 21,0 4,6 0,20 1,40
22-09-2020 14,7     17,0     20,4 5,7 65 81 91 1.012 1.014 1.016 SSE 5,5 31,0 4,4
21-09-2020 16,1     18,1     22,6 6,5 53 76 91 1.014 1.015 1.016 SE 6,9 27,0 0,8 0,20
Últims 13 mesos disponibles
09/2020 9,8 15,1 18,9 18,3 17,7 22,5 25,9 16,1 49 67 85 1.010 1.016 1.022 SSE 7,9 77,0 17,0
08/2020 11,3 18,7 22,8 22,3 19,9 26,2 29,9 18,6 46 66 86 1.003 1.013 1.018 SE 7,5 68,0 33,4
07/2020 15,3 18,4 22,3 22,2 21,6 26,1 29,9 14,6 39 67 91 1.012 1.015 1.022 SSE 6,3 39,0 24,0
04/2020 4,7 7,7 10,7 10,1 9,4 13,4 16,8 12,1 54 83 98 1.004 1.016 1.026 SSO 6,3 43,0 150,4
03/2020 1,3 6,9 13,9 9,4 6,3 12,3 24,2 22,9 51 82 100 1.013 1.019 1.027 ESE 8,0 84,0 250,6
Tots els anys disponibles
Temperatura (°C)
Humitat relativa (%)
Velocitat del vent i ràfega màxima (km/h)
Direcció del vent (°)
Pressió (hPa)
Precipitació (mm)
Nota sobre les dades: s'avisa a l'usuari de la provisionalitat i no oficialitat d'aquestes dades
Logo AVAMET blanc
Web allotjada a Sollutia
Llicència de Creative CommonsLa web d'AVAMET i els seus continguts estan subjectes a una llicència de
Reconeixement - No Comercial - Compartir igual
Últimes estacions: Sueca - Mareny de Barraquetes (Inforatge), La Vilavella - Centre (Ajuntament Soci), Alfondeguilla (Soci), Santa Magdalena de Polpís (Soci),  Benafigos (Aj. Soci), Carlet - Ajuntament (Inforatge), Montroi (Inforatge), Bronchales (Limítrofe-Terol/Aj. Soci), Sueca - Muntanyeta dels Sants (Inforatge), Vilamarxant - Ajuntament (Aj. Soci/Inforatge) - - -